sensor_id;sensor_type;location;lat;lon;timestamp;temperature;humidity
19898;DHT22;10111;50.814;4.572;2022-10-13T00:00:16;12.20;99.90
19898;DHT22;10111;50.814;4.572;2022-10-13T00:02:41;12.20;99.90
19898;DHT22;10111;50.814;4.572;2022-10-13T00:05:07;12.20;99.90
19898;DHT22;10111;50.814;4.572;2022-10-13T00:07:33;12.20;99.90
19898;DHT22;10111;50.814;4.572;2022-10-13T00:09:59;12.20;99.90
19898;DHT22;10111;50.814;4.572;2022-10-13T00:12:24;12.20;99.90
19898;DHT22;10111;50.814;4.572;2022-10-13T00:14:50;12.20;99.90
19898;DHT22;10111;50.814;4.572;2022-10-13T00:17:15;12.20;99.90
19898;DHT22;10111;50.814;4.572;2022-10-13T00:19:41;12.20;99.90
19898;DHT22;10111;50.814;4.572;2022-10-13T00:22:07;12.20;99.90
19898;DHT22;10111;50.814;4.572;2022-10-13T00:24:32;12.20;99.90
19898;DHT22;10111;50.814;4.572;2022-10-13T00:26:58;12.20;99.90
19898;DHT22;10111;50.814;4.572;2022-10-13T00:29:23;12.30;99.90
19898;DHT22;10111;50.814;4.572;2022-10-13T00:31:49;12.20;99.90
19898;DHT22;10111;50.814;4.572;2022-10-13T00:34:15;12.30;99.90
19898;DHT22;10111;50.814;4.572;2022-10-13T00:36:40;12.40;99.90
19898;DHT22;10111;50.814;4.572;2022-10-13T00:39:06;12.20;99.90
19898;DHT22;10111;50.814;4.572;2022-10-13T00:41:32;12.20;99.90
19898;DHT22;10111;50.814;4.572;2022-10-13T00:44:02;12.30;99.90
19898;DHT22;10111;50.814;4.572;2022-10-13T00:46:33;12.30;99.90
19898;DHT22;10111;50.814;4.572;2022-10-13T00:49:11;12.50;99.90
19898;DHT22;10111;50.814;4.572;2022-10-13T00:51:41;12.30;99.90
19898;DHT22;10111;50.814;4.572;2022-10-13T00:54:10;12.30;99.90
19898;DHT22;10111;50.814;4.572;2022-10-13T00:56:38;12.40;99.90
19898;DHT22;10111;50.814;4.572;2022-10-13T00:59:19;12.40;99.90
19898;DHT22;10111;50.814;4.572;2022-10-13T01:01:50;12.30;99.90
19898;DHT22;10111;50.814;4.572;2022-10-13T01:04:17;12.40;99.90
19898;DHT22;10111;50.814;4.572;2022-10-13T01:06:47;12.40;99.90
19898;DHT22;10111;50.814;4.572;2022-10-13T01:09:13;12.40;99.90
19898;DHT22;10111;50.814;4.572;2022-10-13T01:23:05;12.50;99.90
19898;DHT22;10111;50.814;4.572;2022-10-13T01:30:53;12.50;99.90
19898;DHT22;10111;50.814;4.572;2022-10-13T01:33:34;12.50;99.90
19898;DHT22;10111;50.814;4.572;2022-10-13T01:39:11;12.50;99.90
19898;DHT22;10111;50.814;4.572;2022-10-13T01:41:40;12.50;99.90
19898;DHT22;10111;50.814;4.572;2022-10-13T01:44:22;12.50;99.90
19898;DHT22;10111;50.814;4.572;2022-10-13T01:46:50;12.50;99.90
19898;DHT22;10111;50.814;4.572;2022-10-13T01:49:19;12.60;99.90
19898;DHT22;10111;50.814;4.572;2022-10-13T01:51:46;12.50;99.90
19898;DHT22;10111;50.814;4.572;2022-10-13T01:54:13;12.50;99.90
19898;DHT22;10111;50.814;4.572;2022-10-13T01:56:38;12.50;99.90
19898;DHT22;10111;50.814;4.572;2022-10-13T01:59:08;12.50;99.90
19898;DHT22;10111;50.814;4.572;2022-10-13T02:01:54;12.50;99.90
19898;DHT22;10111;50.814;4.572;2022-10-13T02:07:22;12.50;99.90
19898;DHT22;10111;50.814;4.572;2022-10-13T02:12:29;12.50;99.90
19898;DHT22;10111;50.814;4.572;2022-10-13T02:14:58;12.40;99.90
19898;DHT22;10111;50.814;4.572;2022-10-13T02:17:25;12.40;99.90
19898;DHT22;10111;50.814;4.572;2022-10-13T02:19:53;12.40;99.90
19898;DHT22;10111;50.814;4.572;2022-10-13T02:22:20;12.40;99.90
19898;DHT22;10111;50.814;4.572;2022-10-13T02:24:46;12.40;99.90
19898;DHT22;10111;50.814;4.572;2022-10-13T02:27:12;12.30;99.90
19898;DHT22;10111;50.814;4.572;2022-10-13T02:29:52;12.30;99.90
19898;DHT22;10111;50.814;4.572;2022-10-13T02:32:19;12.30;99.90
19898;DHT22;10111;50.814;4.572;2022-10-13T02:34:44;12.30;99.90
19898;DHT22;10111;50.814;4.572;2022-10-13T02:37:10;12.30;99.90
19898;DHT22;10111;50.814;4.572;2022-10-13T02:39:36;12.30;99.90
19898;DHT22;10111;50.814;4.572;2022-10-13T02:42:01;12.20;99.90
19898;DHT22;10111;50.814;4.572;2022-10-13T02:44:27;12.30;99.90
19898;DHT22;10111;50.814;4.572;2022-10-13T02:46:52;12.30;99.90
19898;DHT22;10111;50.814;4.572;2022-10-13T02:49:18;12.20;99.90
19898;DHT22;10111;50.814;4.572;2022-10-13T02:51:43;12.20;99.90
19898;DHT22;10111;50.814;4.572;2022-10-13T02:54:09;12.20;99.90
19898;DHT22;10111;50.814;4.572;2022-10-13T02:56:35;12.20;99.90
19898;DHT22;10111;50.814;4.572;2022-10-13T02:59:00;12.20;99.90
19898;DHT22;10111;50.814;4.572;2022-10-13T03:01:26;12.20;99.90
19898;DHT22;10111;50.814;4.572;2022-10-13T03:03:52;12.30;99.90
19898;DHT22;10111;50.814;4.572;2022-10-13T03:06:17;12.30;99.90
19898;DHT22;10111;50.814;4.572;2022-10-13T03:08:43;12.20;99.90
19898;DHT22;10111;50.814;4.572;2022-10-13T03:11:08;12.30;99.90
19898;DHT22;10111;50.814;4.572;2022-10-13T03:13:35;12.30;99.90
19898;DHT22;10111;50.814;4.572;2022-10-13T03:16:01;12.30;99.90
19898;DHT22;10111;50.814;4.572;2022-10-13T03:18:28;12.40;99.90
19898;DHT22;10111;50.814;4.572;2022-10-13T03:21:02;12.30;99.90
19898;DHT22;10111;50.814;4.572;2022-10-13T03:23:28;12.30;99.90
19898;DHT22;10111;50.814;4.572;2022-10-13T03:25:54;12.30;99.90
19898;DHT22;10111;50.814;4.572;2022-10-13T03:28:20;12.40;99.90
19898;DHT22;10111;50.814;4.572;2022-10-13T03:30:47;12.50;99.90
19898;DHT22;10111;50.814;4.572;2022-10-13T03:33:13;12.30;99.90
19898;DHT22;10111;50.814;4.572;2022-10-13T03:35:38;12.30;99.90
19898;DHT22;10111;50.814;4.572;2022-10-13T03:38:04;12.50;99.90
19898;DHT22;10111;50.814;4.572;2022-10-13T03:40:30;12.60;99.90
19898;DHT22;10111;50.814;4.572;2022-10-13T03:42:55;12.50;99.90
19898;DHT22;10111;50.814;4.572;2022-10-13T03:45:21;12.30;99.90
19898;DHT22;10111;50.814;4.572;2022-10-13T03:47:46;12.30;99.90
19898;DHT22;10111;50.814;4.572;2022-10-13T03:50:12;12.30;99.90
19898;DHT22;10111;50.814;4.572;2022-10-13T03:52:38;12.40;99.90
19898;DHT22;10111;50.814;4.572;2022-10-13T03:55:04;12.40;99.90
19898;DHT22;10111;50.814;4.572;2022-10-13T03:57:30;12.40;99.90
19898;DHT22;10111;50.814;4.572;2022-10-13T03:59:55;12.50;99.90
19898;DHT22;10111;50.814;4.572;2022-10-13T04:02:22;12.40;99.90
19898;DHT22;10111;50.814;4.572;2022-10-13T04:04:48;12.50;99.90
19898;DHT22;10111;50.814;4.572;2022-10-13T04:07:14;12.50;99.90
19898;DHT22;10111;50.814;4.572;2022-10-13T04:09:40;12.30;99.90
19898;DHT22;10111;50.814;4.572;2022-10-13T04:12:06;12.30;99.90
19898;DHT22;10111;50.814;4.572;2022-10-13T04:14:32;12.30;99.90
19898;DHT22;10111;50.814;4.572;2022-10-13T04:16:57;12.30;99.90
19898;DHT22;10111;50.814;4.572;2022-10-13T04:19:23;12.30;99.90
19898;DHT22;10111;50.814;4.572;2022-10-13T04:21:49;12.30;99.90
19898;DHT22;10111;50.814;4.572;2022-10-13T04:24:15;12.30;99.90
19898;DHT22;10111;50.814;4.572;2022-10-13T04:26:43;12.30;99.90
19898;DHT22;10111;50.814;4.572;2022-10-13T04:29:10;12.30;99.90
19898;DHT22;10111;50.814;4.572;2022-10-13T04:31:37;12.40;99.90
19898;DHT22;10111;50.814;4.572;2022-10-13T04:34:03;12.40;99.90
19898;DHT22;10111;50.814;4.572;2022-10-13T04:36:29;12.40;99.90
19898;DHT22;10111;50.814;4.572;2022-10-13T04:38:54;12.40;99.90
19898;DHT22;10111;50.814;4.572;2022-10-13T04:41:21;12.50;99.90
19898;DHT22;10111;50.814;4.572;2022-10-13T04:43:48;12.60;99.90
19898;DHT22;10111;50.814;4.572;2022-10-13T04:46:17;12.70;99.90
19898;DHT22;10111;50.814;4.572;2022-10-13T04:48:43;12.50;99.90
19898;DHT22;10111;50.814;4.572;2022-10-13T04:51:11;12.50;99.90
19898;DHT22;10111;50.814;4.572;2022-10-13T04:53:37;12.50;99.90
19898;DHT22;10111;50.814;4.572;2022-10-13T04:56:06;12.50;99.90
19898;DHT22;10111;50.814;4.572;2022-10-13T04:58:33;12.40;99.90
19898;DHT22;10111;50.814;4.572;2022-10-13T05:00:59;12.40;99.90
19898;DHT22;10111;50.814;4.572;2022-10-13T05:03:25;12.50;99.90
19898;DHT22;10111;50.814;4.572;2022-10-13T05:05:51;12.40;99.90
19898;DHT22;10111;50.814;4.572;2022-10-13T05:08:17;12.60;99.90
19898;DHT22;10111;50.814;4.572;2022-10-13T05:10:51;12.40;99.90
19898;DHT22;10111;50.814;4.572;2022-10-13T05:13:17;12.50;99.90
19898;DHT22;10111;50.814;4.572;2022-10-13T05:15:42;12.70;99.90
19898;DHT22;10111;50.814;4.572;2022-10-13T05:18:08;12.50;99.90
19898;DHT22;10111;50.814;4.572;2022-10-13T05:20:33;12.50;99.90
19898;DHT22;10111;50.814;4.572;2022-10-13T05:22:59;12.50;99.90
19898;DHT22;10111;50.814;4.572;2022-10-13T05:25:25;12.50;99.90
19898;DHT22;10111;50.814;4.572;2022-10-13T05:27:50;12.50;99.90
19898;DHT22;10111;50.814;4.572;2022-10-13T05:30:16;12.60;99.90
19898;DHT22;10111;50.814;4.572;2022-10-13T05:32:41;12.50;99.90
19898;DHT22;10111;50.814;4.572;2022-10-13T05:35:07;12.50;99.90
19898;DHT22;10111;50.814;4.572;2022-10-13T05:37:33;12.50;99.90
19898;DHT22;10111;50.814;4.572;2022-10-13T05:39:59;12.40;99.90
19898;DHT22;10111;50.814;4.572;2022-10-13T05:42:24;12.50;99.90
19898;DHT22;10111;50.814;4.572;2022-10-13T05:44:52;12.40;99.90
19898;DHT22;10111;50.814;4.572;2022-10-13T05:47:18;12.40;99.90
19898;DHT22;10111;50.814;4.572;2022-10-13T05:49:44;12.40;99.90
19898;DHT22;10111;50.814;4.572;2022-10-13T05:52:11;12.60;99.90
19898;DHT22;10111;50.814;4.572;2022-10-13T05:54:43;12.40;99.90
19898;DHT22;10111;50.814;4.572;2022-10-13T05:57:25;12.40;99.90
19898;DHT22;10111;50.814;4.572;2022-10-13T05:59:56;12.40;99.90
19898;DHT22;10111;50.814;4.572;2022-10-13T06:02:27;12.40;99.90
19898;DHT22;10111;50.814;4.572;2022-10-13T06:04:59;12.60;99.90
19898;DHT22;10111;50.814;4.572;2022-10-13T06:07:25;12.40;99.90
19898;DHT22;10111;50.814;4.572;2022-10-13T06:09:50;12.50;99.90
19898;DHT22;10111;50.814;4.572;2022-10-13T06:12:16;12.70;99.90
19898;DHT22;10111;50.814;4.572;2022-10-13T06:14:42;12.50;99.90
19898;DHT22;10111;50.814;4.572;2022-10-13T06:17:07;12.60;99.90
19898;DHT22;10111;50.814;4.572;2022-10-13T06:19:33;12.60;99.90
19898;DHT22;10111;50.814;4.572;2022-10-13T06:21:59;12.60;99.90
19898;DHT22;10111;50.814;4.572;2022-10-13T06:24:24;12.60;99.90
19898;DHT22;10111;50.814;4.572;2022-10-13T06:26:50;12.60;99.90
19898;DHT22;10111;50.814;4.572;2022-10-13T06:29:15;12.60;99.90
19898;DHT22;10111;50.814;4.572;2022-10-13T06:31:41;12.70;99.90
19898;DHT22;10111;50.814;4.572;2022-10-13T06:34:07;12.80;99.90
19898;DHT22;10111;50.814;4.572;2022-10-13T06:36:32;12.70;99.90
19898;DHT22;10111;50.814;4.572;2022-10-13T06:38:58;12.70;99.90
19898;DHT22;10111;50.814;4.572;2022-10-13T06:41:24;12.70;99.90
19898;DHT22;10111;50.814;4.572;2022-10-13T06:43:49;12.70;99.90
19898;DHT22;10111;50.814;4.572;2022-10-13T06:46:15;12.80;99.90
19898;DHT22;10111;50.814;4.572;2022-10-13T06:48:41;12.80;99.90
19898;DHT22;10111;50.814;4.572;2022-10-13T06:51:09;12.80;99.90
19898;DHT22;10111;50.814;4.572;2022-10-13T06:53:35;12.80;99.90
19898;DHT22;10111;50.814;4.572;2022-10-13T06:56:03;12.90;99.90
19898;DHT22;10111;50.814;4.572;2022-10-13T06:58:29;12.90;99.90
19898;DHT22;10111;50.814;4.572;2022-10-13T07:00:55;12.90;99.90
19898;DHT22;10111;50.814;4.572;2022-10-13T07:03:21;12.90;99.90
19898;DHT22;10111;50.814;4.572;2022-10-13T07:05:48;13.00;99.90
19898;DHT22;10111;50.814;4.572;2022-10-13T07:08:13;13.00;99.90
19898;DHT22;10111;50.814;4.572;2022-10-13T07:10:40;13.00;99.90
19898;DHT22;10111;50.814;4.572;2022-10-13T07:13:06;13.00;99.90
19898;DHT22;10111;50.814;4.572;2022-10-13T07:15:31;13.20;99.90
19898;DHT22;10111;50.814;4.572;2022-10-13T07:17:57;13.00;99.90
19898;DHT22;10111;50.814;4.572;2022-10-13T07:20:23;13.00;99.90
19898;DHT22;10111;50.814;4.572;2022-10-13T07:22:51;13.10;99.90
19898;DHT22;10111;50.814;4.572;2022-10-13T07:25:17;13.10;99.90
19898;DHT22;10111;50.814;4.572;2022-10-13T07:27:42;13.10;99.90
19898;DHT22;10111;50.814;4.572;2022-10-13T07:30:09;13.20;99.90
19898;DHT22;10111;50.814;4.572;2022-10-13T07:32:35;13.20;99.90
19898;DHT22;10111;50.814;4.572;2022-10-13T07:35:01;13.20;99.90
19898;DHT22;10111;50.814;4.572;2022-10-13T07:37:27;13.30;99.90
19898;DHT22;10111;50.814;4.572;2022-10-13T07:39:53;13.40;99.90
19898;DHT22;10111;50.814;4.572;2022-10-13T07:42:19;13.30;99.90
19898;DHT22;10111;50.814;4.572;2022-10-13T07:44:44;13.30;99.90
19898;DHT22;10111;50.814;4.572;2022-10-13T07:47:10;13.40;99.90
19898;DHT22;10111;50.814;4.572;2022-10-13T07:49:36;13.40;99.90
19898;DHT22;10111;50.814;4.572;2022-10-13T07:52:02;13.30;99.90
19898;DHT22;10111;50.814;4.572;2022-10-13T07:54:27;13.30;99.90
19898;DHT22;10111;50.814;4.572;2022-10-13T07:56:54;13.40;99.90
19898;DHT22;10111;50.814;4.572;2022-10-13T07:59:20;13.50;99.90
19898;DHT22;10111;50.814;4.572;2022-10-13T08:01:46;13.40;99.90
19898;DHT22;10111;50.814;4.572;2022-10-13T08:04:11;13.40;99.90
19898;DHT22;10111;50.814;4.572;2022-10-13T08:06:37;13.40;99.90
19898;DHT22;10111;50.814;4.572;2022-10-13T08:09:03;13.30;99.90
19898;DHT22;10111;50.814;4.572;2022-10-13T08:11:29;13.30;99.90
19898;DHT22;10111;50.814;4.572;2022-10-13T08:13:55;13.30;99.90
19898;DHT22;10111;50.814;4.572;2022-10-13T08:16:25;13.40;99.90
19898;DHT22;10111;50.814;4.572;2022-10-13T08:18:51;13.40;99.90
19898;DHT22;10111;50.814;4.572;2022-10-13T08:21:18;13.60;99.90
19898;DHT22;10111;50.814;4.572;2022-10-13T08:23:44;13.50;99.90
19898;DHT22;10111;50.814;4.572;2022-10-13T08:26:15;13.50;99.90
19898;DHT22;10111;50.814;4.572;2022-10-13T08:28:42;13.50;99.90
19898;DHT22;10111;50.814;4.572;2022-10-13T08:31:08;13.50;99.90
19898;DHT22;10111;50.814;4.572;2022-10-13T08:33:33;13.50;99.90
19898;DHT22;10111;50.814;4.572;2022-10-13T08:35:59;13.60;99.90
19898;DHT22;10111;50.814;4.572;2022-10-13T08:38:25;13.60;99.90
19898;DHT22;10111;50.814;4.572;2022-10-13T08:40:51;13.60;99.90
19898;DHT22;10111;50.814;4.572;2022-10-13T08:43:21;13.60;99.90
19898;DHT22;10111;50.814;4.572;2022-10-13T08:45:49;13.70;99.90
19898;DHT22;10111;50.814;4.572;2022-10-13T08:48:22;13.70;99.90
19898;DHT22;10111;50.814;4.572;2022-10-13T08:50:51;13.80;99.90
19898;DHT22;10111;50.814;4.572;2022-10-13T08:53:31;13.90;99.90
19898;DHT22;10111;50.814;4.572;2022-10-13T08:56:06;14.00;99.90
19898;DHT22;10111;50.814;4.572;2022-10-13T08:58:35;14.00;99.90
19898;DHT22;10111;50.814;4.572;2022-10-13T09:08:44;14.40;99.90
19898;DHT22;10111;50.814;4.572;2022-10-13T09:11:13;14.30;99.90
19898;DHT22;10111;50.814;4.572;2022-10-13T09:13:39;14.30;99.90
19898;DHT22;10111;50.814;4.572;2022-10-13T09:16:05;14.30;99.90
19898;DHT22;10111;50.814;4.572;2022-10-13T09:18:32;14.30;99.90
19898;DHT22;10111;50.814;4.572;2022-10-13T09:21:23;14.30;99.90
19898;DHT22;10111;50.814;4.572;2022-10-13T09:23:50;14.40;99.90
19898;DHT22;10111;50.814;4.572;2022-10-13T09:26:22;14.40;99.90
19898;DHT22;10111;50.814;4.572;2022-10-13T09:28:49;14.40;99.90
19898;DHT22;10111;50.814;4.572;2022-10-13T09:31:22;14.60;99.90
19898;DHT22;10111;50.814;4.572;2022-10-13T09:33:57;14.60;99.90
19898;DHT22;10111;50.814;4.572;2022-10-13T09:36:23;14.60;99.90
19898;DHT22;10111;50.814;4.572;2022-10-13T09:39:14;14.60;99.90
19898;DHT22;10111;50.814;4.572;2022-10-13T09:41:41;14.60;99.90
19898;DHT22;10111;50.814;4.572;2022-10-13T09:44:26;14.60;99.90
19898;DHT22;10111;50.814;4.572;2022-10-13T09:47:00;14.60;99.90
19898;DHT22;10111;50.814;4.572;2022-10-13T09:49:35;14.60;99.90
19898;DHT22;10111;50.814;4.572;2022-10-13T10:00:02;14.80;99.90
19898;DHT22;10111;50.814;4.572;2022-10-13T10:05:03;14.80;99.90
19898;DHT22;10111;50.814;4.572;2022-10-13T10:07:32;14.90;99.90
19898;DHT22;10111;50.814;4.572;2022-10-13T10:10:12;15.00;99.90
19898;DHT22;10111;50.814;4.572;2022-10-13T10:12:40;15.00;99.90
19898;DHT22;10111;50.814;4.572;2022-10-13T10:15:22;15.10;99.90
19898;DHT22;10111;50.814;4.572;2022-10-13T10:17:57;15.20;99.90
19898;DHT22;10111;50.814;4.572;2022-10-13T10:20:44;15.30;99.90
19898;DHT22;10111;50.814;4.572;2022-10-13T10:26:00;15.40;99.90
19898;DHT22;10111;50.814;4.572;2022-10-13T10:28:33;15.60;99.90
19898;DHT22;10111;50.814;4.572;2022-10-13T10:36:52;15.50;99.90
19898;DHT22;10111;50.814;4.572;2022-10-13T10:39:32;15.40;99.90
19898;DHT22;10111;50.814;4.572;2022-10-13T10:45:22;15.40;99.90
19898;DHT22;10111;50.814;4.572;2022-10-13T10:47:58;15.40;99.90
19898;DHT22;10111;50.814;4.572;2022-10-13T10:50:24;15.30;99.90
19898;DHT22;10111;50.814;4.572;2022-10-13T10:53:04;15.30;99.90
19898;DHT22;10111;50.814;4.572;2022-10-13T10:55:53;15.30;99.90
19898;DHT22;10111;50.814;4.572;2022-10-13T11:06:39;15.30;99.90
19898;DHT22;10111;50.814;4.572;2022-10-13T11:09:05;15.20;99.90
19898;DHT22;10111;50.814;4.572;2022-10-13T11:11:36;15.20;99.90
19898;DHT22;10111;50.814;4.572;2022-10-13T11:35:16;14.90;99.90
19898;DHT22;10111;50.814;4.572;2022-10-13T11:40:30;15.10;99.90
19898;DHT22;10111;50.814;4.572;2022-10-13T11:45:37;14.80;99.90
19898;DHT22;10111;50.814;4.572;2022-10-13T11:53:30;14.90;99.90
19898;DHT22;10111;50.814;4.572;2022-10-13T11:55:58;14.80;99.90
19898;DHT22;10111;50.814;4.572;2022-10-13T11:58:29;14.80;99.90
19898;DHT22;10111;50.814;4.572;2022-10-13T12:01:09;15.00;99.90
19898;DHT22;10111;50.814;4.572;2022-10-13T12:03:38;14.80;99.90
19898;DHT22;10111;50.814;4.572;2022-10-13T12:06:06;14.70;99.90
19898;DHT22;10111;50.814;4.572;2022-10-13T12:08:47;14.80;99.90
19898;DHT22;10111;50.814;4.572;2022-10-13T12:11:24;14.90;99.90
19898;DHT22;10111;50.814;4.572;2022-10-13T12:13:51;14.90;99.90
19898;DHT22;10111;50.814;4.572;2022-10-13T12:16:17;15.00;99.90
19898;DHT22;10111;50.814;4.572;2022-10-13T12:18:43;15.20;99.90
19898;DHT22;10111;50.814;4.572;2022-10-13T12:21:11;15.30;99.90
19898;DHT22;10111;50.814;4.572;2022-10-13T12:23:38;15.40;99.90
19898;DHT22;10111;50.814;4.572;2022-10-13T12:26:04;15.40;99.90
19898;DHT22;10111;50.814;4.572;2022-10-13T12:34:33;16.00;99.90
19898;DHT22;10111;50.814;4.572;2022-10-13T12:36:39;16.20;99.90
19898;DHT22;10111;50.814;4.572;2022-10-13T12:39:12;16.40;99.90
19898;DHT22;10111;50.814;4.572;2022-10-13T12:41:44;16.40;99.90
19898;DHT22;10111;50.814;4.572;2022-10-13T12:44:22;16.50;99.90
19898;DHT22;10111;50.814;4.572;2022-10-13T12:47:00;16.60;99.90
19898;DHT22;10111;50.814;4.572;2022-10-13T12:49:33;16.50;99.90
19898;DHT22;10111;50.814;4.572;2022-10-13T12:52:19;16.40;99.90
19898;DHT22;10111;50.814;4.572;2022-10-13T12:57:19;16.30;99.90
19898;DHT22;10111;50.814;4.572;2022-10-13T12:59:47;16.30;99.90
19898;DHT22;10111;50.814;4.572;2022-10-13T13:02:27;16.20;99.90
19898;DHT22;10111;50.814;4.572;2022-10-13T13:04:53;16.10;99.90
19898;DHT22;10111;50.814;4.572;2022-10-13T13:07:32;16.10;99.90
19898;DHT22;10111;50.814;4.572;2022-10-13T13:12:33;16.00;99.90
19898;DHT22;10111;50.814;4.572;2022-10-13T13:15:29;15.90;99.90
19898;DHT22;10111;50.814;4.572;2022-10-13T13:21:06;15.80;99.90
19898;DHT22;10111;50.814;4.572;2022-10-13T13:23:32;15.90;99.90
19898;DHT22;10111;50.814;4.572;2022-10-13T13:26:13;15.80;99.90
19898;DHT22;10111;50.814;4.572;2022-10-13T13:28:44;15.90;99.90
19898;DHT22;10111;50.814;4.572;2022-10-13T13:31:11;15.90;99.90
19898;DHT22;10111;50.814;4.572;2022-10-13T13:33:37;16.00;99.90
19898;DHT22;10111;50.814;4.572;2022-10-13T13:36:03;16.00;99.90
19898;DHT22;10111;50.814;4.572;2022-10-13T13:38:30;16.00;99.90
19898;DHT22;10111;50.814;4.572;2022-10-13T13:40:55;16.20;99.90
19898;DHT22;10111;50.814;4.572;2022-10-13T13:43:21;16.00;99.90
19898;DHT22;10111;50.814;4.572;2022-10-13T13:45:46;16.00;99.90
19898;DHT22;10111;50.814;4.572;2022-10-13T13:48:12;15.90;99.90
19898;DHT22;10111;50.814;4.572;2022-10-13T13:50:38;15.90;99.90
19898;DHT22;10111;50.814;4.572;2022-10-13T13:53:04;15.90;99.90
19898;DHT22;10111;50.814;4.572;2022-10-13T13:55:30;15.90;99.90
19898;DHT22;10111;50.814;4.572;2022-10-13T13:57:56;15.80;99.90
19898;DHT22;10111;50.814;4.572;2022-10-13T14:00:22;15.80;99.90
19898;DHT22;10111;50.814;4.572;2022-10-13T14:02:48;15.80;99.90
19898;DHT22;10111;50.814;4.572;2022-10-13T14:05:14;15.80;99.90
19898;DHT22;10111;50.814;4.572;2022-10-13T14:07:40;15.70;99.90
19898;DHT22;10111;50.814;4.572;2022-10-13T14:10:07;15.60;99.90
19898;DHT22;10111;50.814;4.572;2022-10-13T14:12:33;15.60;99.90
19898;DHT22;10111;50.814;4.572;2022-10-13T14:14:59;15.60;99.90
19898;DHT22;10111;50.814;4.572;2022-10-13T14:17:26;15.70;99.90
19898;DHT22;10111;50.814;4.572;2022-10-13T14:19:52;15.50;99.90
19898;DHT22;10111;50.814;4.572;2022-10-13T14:22:18;15.50;99.90
19898;DHT22;10111;50.814;4.572;2022-10-13T14:24:43;15.50;99.90
19898;DHT22;10111;50.814;4.572;2022-10-13T14:27:09;15.60;99.90
19898;DHT22;10111;50.814;4.572;2022-10-13T14:29:35;15.60;99.90
19898;DHT22;10111;50.814;4.572;2022-10-13T14:32:01;15.60;99.90
19898;DHT22;10111;50.814;4.572;2022-10-13T14:34:27;15.60;99.90
19898;DHT22;10111;50.814;4.572;2022-10-13T14:36:53;15.60;99.90
19898;DHT22;10111;50.814;4.572;2022-10-13T14:39:18;15.60;99.90
19898;DHT22;10111;50.814;4.572;2022-10-13T14:41:44;15.60;99.90
19898;DHT22;10111;50.814;4.572;2022-10-13T14:44:11;15.60;99.90
19898;DHT22;10111;50.814;4.572;2022-10-13T14:46:37;15.50;99.90
19898;DHT22;10111;50.814;4.572;2022-10-13T14:49:03;15.60;99.90
19898;DHT22;10111;50.814;4.572;2022-10-13T14:51:28;15.50;99.90
19898;DHT22;10111;50.814;4.572;2022-10-13T14:53:55;15.50;99.90
19898;DHT22;10111;50.814;4.572;2022-10-13T14:56:26;15.50;99.90
19898;DHT22;10111;50.814;4.572;2022-10-13T14:58:55;15.50;99.90
19898;DHT22;10111;50.814;4.572;2022-10-13T15:01:21;15.50;99.90
19898;DHT22;10111;50.814;4.572;2022-10-13T15:03:47;15.40;99.90
19898;DHT22;10111;50.814;4.572;2022-10-13T15:06:15;15.60;99.90
19898;DHT22;10111;50.814;4.572;2022-10-13T15:08:41;15.40;99.90
19898;DHT22;10111;50.814;4.572;2022-10-13T15:11:07;15.30;99.90
19898;DHT22;10111;50.814;4.572;2022-10-13T15:13:33;15.20;99.90
19898;DHT22;10111;50.814;4.572;2022-10-13T15:15:59;15.10;99.90
19898;DHT22;10111;50.814;4.572;2022-10-13T15:18:30;15.00;99.90
19898;DHT22;10111;50.814;4.572;2022-10-13T15:20:56;15.00;99.90
19898;DHT22;10111;50.814;4.572;2022-10-13T15:23:22;15.10;99.90
19898;DHT22;10111;50.814;4.572;2022-10-13T15:25:56;15.10;99.90
19898;DHT22;10111;50.814;4.572;2022-10-13T15:28:23;15.10;99.90
19898;DHT22;10111;50.814;4.572;2022-10-13T15:30:49;15.00;99.90
19898;DHT22;10111;50.814;4.572;2022-10-13T15:33:15;15.00;99.90
19898;DHT22;10111;50.814;4.572;2022-10-13T15:35:40;15.00;99.90
19898;DHT22;10111;50.814;4.572;2022-10-13T15:38:06;15.10;99.90
19898;DHT22;10111;50.814;4.572;2022-10-13T15:40:32;15.00;99.90
19898;DHT22;10111;50.814;4.572;2022-10-13T15:42:59;14.90;99.90
19898;DHT22;10111;50.814;4.572;2022-10-13T15:45:25;14.80;99.90
19898;DHT22;10111;50.814;4.572;2022-10-13T15:47:51;14.90;99.90
19898;DHT22;10111;50.814;4.572;2022-10-13T15:50:17;14.90;99.90
19898;DHT22;10111;50.814;4.572;2022-10-13T15:52:42;14.90;99.90
19898;DHT22;10111;50.814;4.572;2022-10-13T15:55:10;14.80;99.90
19898;DHT22;10111;50.814;4.572;2022-10-13T15:57:37;14.80;99.90
19898;DHT22;10111;50.814;4.572;2022-10-13T16:00:04;14.80;99.90
19898;DHT22;10111;50.814;4.572;2022-10-13T16:02:30;14.80;99.90
19898;DHT22;10111;50.814;4.572;2022-10-13T16:04:56;14.80;99.90
19898;DHT22;10111;50.814;4.572;2022-10-13T16:07:23;14.80;99.90
19898;DHT22;10111;50.814;4.572;2022-10-13T16:09:48;14.60;99.90
19898;DHT22;10111;50.814;4.572;2022-10-13T16:12:14;14.70;99.90
19898;DHT22;10111;50.814;4.572;2022-10-13T16:14:40;14.60;99.90
19898;DHT22;10111;50.814;4.572;2022-10-13T16:17:05;14.60;99.90
19898;DHT22;10111;50.814;4.572;2022-10-13T16:19:31;14.70;99.90
19898;DHT22;10111;50.814;4.572;2022-10-13T16:21:57;14.60;99.90
19898;DHT22;10111;50.814;4.572;2022-10-13T16:24:22;14.70;99.90
19898;DHT22;10111;50.814;4.572;2022-10-13T16:26:48;14.70;99.90
19898;DHT22;10111;50.814;4.572;2022-10-13T16:29:13;14.70;99.90
19898;DHT22;10111;50.814;4.572;2022-10-13T16:31:39;14.70;99.90
19898;DHT22;10111;50.814;4.572;2022-10-13T16:34:05;14.70;99.90
19898;DHT22;10111;50.814;4.572;2022-10-13T16:36:30;14.80;99.90
19898;DHT22;10111;50.814;4.572;2022-10-13T16:38:56;14.80;99.90
19898;DHT22;10111;50.814;4.572;2022-10-13T16:41:22;14.90;99.90
19898;DHT22;10111;50.814;4.572;2022-10-13T16:43:48;14.70;99.90
19898;DHT22;10111;50.814;4.572;2022-10-13T16:46:18;14.60;99.90
19898;DHT22;10111;50.814;4.572;2022-10-13T16:48:45;14.50;99.90
19898;DHT22;10111;50.814;4.572;2022-10-13T16:51:14;14.50;99.90
19898;DHT22;10111;50.814;4.572;2022-10-13T16:53:40;14.40;99.90
19898;DHT22;10111;50.814;4.572;2022-10-13T16:56:06;14.50;99.90
19898;DHT22;10111;50.814;4.572;2022-10-13T16:58:33;14.50;99.90
19898;DHT22;10111;50.814;4.572;2022-10-13T17:01:04;14.60;99.90
19898;DHT22;10111;50.814;4.572;2022-10-13T17:03:30;14.70;99.90
19898;DHT22;10111;50.814;4.572;2022-10-13T17:05:56;14.60;99.90
19898;DHT22;10111;50.814;4.572;2022-10-13T17:08:21;14.60;99.90
19898;DHT22;10111;50.814;4.572;2022-10-13T17:10:47;14.70;99.90
19898;DHT22;10111;50.814;4.572;2022-10-13T17:13:12;14.70;99.90
19898;DHT22;10111;50.814;4.572;2022-10-13T17:15:38;14.70;99.90
19898;DHT22;10111;50.814;4.572;2022-10-13T17:18:04;14.70;99.90
19898;DHT22;10111;50.814;4.572;2022-10-13T17:20:29;14.70;99.90
19898;DHT22;10111;50.814;4.572;2022-10-13T17:22:55;14.70;99.90